Time;durP1;ratioP1;P1;durP2;ratioP2;P2;SDS_P1;SDS_P2;PMS_P1;PMS_P2;Temp;Humidity;BMP_temperature;BMP_pressure;BME280_temperature;BME280_humidity;BME280_pressure;Samples;Min_cycle;Max_cycle;Signal;HPM_P1;HPM_P2
2024/03/04 00:00:13;;;;;;;1.98;1.83;;;;;;;;;;1290346;23;20011;-73
2024/03/04 00:00:44;;;;;;;0.98;0.88;;;;;;;;;;1289108;23;20000;-74
2024/03/04 00:01:14;;;;;;;2.45;2.28;;;;;;;;;;1284047;23;20012;-74
2024/03/04 00:01:45;;;;;;;0.98;0.82;;;;;;;;;;1277849;23;20009;-74
2024/03/04 00:02:16;;;;;;;10.65;3.42;;;;;;;;;;1278119;23;20004;-74
2024/03/04 00:02:46;;;;;;;1.80;1.70;;;;;;;;;;1284294;23;20032;-74
2024/03/04 00:03:17;;;;;;;1.38;1.27;;;;;;;;;;1278021;23;20009;-74
2024/03/04 00:03:47;;;;;;;4.03;2.80;;;;;;;;;;1278002;23;20005;-73
2024/03/04 00:04:18;;;;;;;3.45;3.20;;;;;;;;;;1271565;23;20129;-73
2024/03/04 00:04:49;;;;;;;0.35;0.35;;;;;;;;;;1271968;23;20032;-73
2024/03/04 00:05:19;;;;;;;2.13;1.90;;;;;;;;;;1277975;23;20063;-73
2024/03/04 00:05:50;;;;;;;3.80;3.20;;;;;;;;;;1284223;23;20013;-74
2024/03/04 00:06:20;;;;;;;2.20;2.00;;;;;;;;;;1284779;23;20425;-73
2024/03/04 00:06:51;;;;;;;0.93;0.82;;;;;;;;;;1289739;23;20016;-73
2024/03/04 00:07:24;;;;;;;0.70;0.70;;;;;;;;;;1290360;23;20014;-74
2024/03/04 00:07:56;;;;;;;1.45;1.35;;;;;;;;;;1290725;23;20011;-74
2024/03/04 00:08:28;;;;;;;12.73;1.30;;;;;;;;;;1289394;23;20010;-74
2024/03/04 00:08:58;;;;;;;1.48;0.85;;;;;;;;;;1284462;23;20009;-73
2024/03/04 00:09:29;;;;;;;3.78;3.22;;;;;;;;;;1284433;23;20414;-73
2024/03/04 00:10:00;;;;;;;1.08;1.02;;;;;;;;;;1284596;23;20004;-73
2024/03/04 00:10:30;;;;;;;1.58;1.48;;;;;;;;;;1284166;23;20433;-73
2024/03/04 00:11:01;;;;;;;0.47;0.47;;;;;;;;;;1284500;23;20000;-74
2024/03/04 00:11:31;;;;;;;0.90;0.77;;;;;;;;;;1284555;23;20088;-74
2024/03/04 00:12:03;;;;;;;3.65;2.47;;;;;;;;;;1284038;23;20013;-74
2024/03/04 00:12:34;;;;;;;0.30;0.30;;;;;;;;;;1283962;23;20449;-74
2024/03/04 00:13:05;;;;;;;0.88;0.88;;;;;;;;;;1284129;23;20027;-74
2024/03/04 00:13:36;;;;;;;3.63;3.33;;;;;;;;;;1284060;23;20005;-74
2024/03/04 00:14:07;;;;;;;1.02;1.02;;;;;;;;;;1284716;23;20091;-74
2024/03/04 00:14:38;;;;;;;0.57;0.57;;;;;;;;;;1289952;23;20079;-74
2024/03/04 00:15:09;;;;;;;0.30;0.30;;;;;;;;;;1290405;23;20048;-74
2024/03/04 00:15:39;;;;;;;1.98;0.85;;;;;;;;;;1290189;23;20008;-73
2024/03/04 00:16:10;;;;;;;1.17;1.15;;;;;;;;;;1290208;23;20035;-74
2024/03/04 00:16:41;;;;;;;1.70;1.05;;;;;;;;;;1283957;23;20036;-74
2024/03/04 00:17:12;;;;;;;1.75;1.65;;;;;;;;;;1277790;23;20040;-75
2024/03/04 00:17:42;;;;;;;1.45;1.40;;;;;;;;;;1277829;23;20008;-74
2024/03/04 00:18:13;;;;;;;0.40;0.40;;;;;;;;;;1278521;23;20009;-73
2024/03/04 00:18:43;;;;;;;3.42;2.67;;;;;;;;;;1283855;23;20004;-73
2024/03/04 00:19:18;;;;;;;5.22;1.05;;;;;;;;;;1284385;23;20027;-74
2024/03/04 00:19:49;;;;;;;3.50;2.67;;;;;;;;;;1284555;23;20015;-74
2024/03/04 00:20:19;;;;;;;0.30;0.30;;;;;;;;;;1284462;23;20031;-74
2024/03/04 00:20:49;;;;;;;0.20;0.20;;;;;;;;;;1284509;23;20012;-73
2024/03/04 00:21:20;;;;;;;4.05;2.38;;;;;;;;;;1283882;23;20488;-73
2024/03/04 00:21:51;;;;;;;2.65;1.10;;;;;;;;;;1283651;23;20441;-74
2024/03/04 00:22:21;;;;;;;2.38;1.30;;;;;;;;;;1284027;23;20027;-74
2024/03/04 00:22:52;;;;;;;0.30;0.30;;;;;;;;;;1284068;23;20126;-75
2024/03/04 00:23:22;;;;;;;3.35;3.08;;;;;;;;;;1284573;23;20015;-74
2024/03/04 00:23:53;;;;;;;1.73;1.63;;;;;;;;;;1284630;23;20004;-73
2024/03/04 00:24:24;;;;;;;2.38;2.28;;;;;;;;;;1289937;23;20503;-73
2024/03/04 00:24:54;;;;;;;1.05;1.05;;;;;;;;;;1284117;23;20559;-74
2024/03/04 00:25:24;;;;;;;1.40;1.23;;;;;;;;;;1277668;23;20459;-73
2024/03/04 00:25:55;;;;;;;1.85;1.38;;;;;;;;;;1278004;23;20012;-73
2024/03/04 00:26:26;;;;;;;2.95;2.28;;;;;;;;;;1277844;23;20008;-73
2024/03/04 00:26:56;;;;;;;3.90;2.80;;;;;;;;;;1284019;23;20012;-73
2024/03/04 00:27:27;;;;;;;1.27;1.17;;;;;;;;;;1283895;23;20013;-74
2024/03/04 00:27:57;;;;;;;4.38;2.20;;;;;;;;;;1284421;23;20005;-73
2024/03/04 00:28:28;;;;;;;0.75;0.75;;;;;;;;;;1283869;23;20001;-74
2024/03/04 00:28:58;;;;;;;1.55;1.38;;;;;;;;;;1284285;23;20392;-73
2024/03/04 00:29:29;;;;;;;0.40;0.40;;;;;;;;;;1284365;23;20012;-74
2024/03/04 00:29:59;;;;;;;1.85;1.75;;;;;;;;;;1284549;23;20012;-74
2024/03/04 00:30:30;;;;;;;1.17;1.08;;;;;;;;;;1284118;23;20504;-73
2024/03/04 00:31:00;;;;;;;3.53;3.20;;;;;;;;;;1284570;23;20005;-74
2024/03/04 00:31:31;;;;;;;4.95;3.70;;;;;;;;;;1284417;23;20008;-73
2024/03/04 00:32:01;;;;;;;2.72;2.50;;;;;;;;;;1290334;23;20008;-73
2024/03/04 00:32:32;;;;;;;1.90;1.80;;;;;;;;;;1290362;23;20337;-73
2024/03/04 00:33:02;;;;;;;6.05;1.77;;;;;;;;;;1290547;23;20008;-73
2024/03/04 00:33:33;;;;;;;3.03;2.70;;;;;;;;;;1283941;23;20085;-73
2024/03/04 00:34:04;;;;;;;2.17;1.10;;;;;;;;;;1284223;23;20009;-74
2024/03/04 00:34:34;;;;;;;0.20;0.20;;;;;;;;;;1277756;23;20411;-74
2024/03/04 00:35:06;;;;;;;1.23;0.95;;;;;;;;;;1272045;23;20016;-73
2024/03/04 00:35:36;;;;;;;1.58;1.50;;;;;;;;;;1271831;23;20354;-74
2024/03/04 00:36:07;;;;;;;0.57;0.57;;;;;;;;;;1272136;23;20006;-74
2024/03/04 00:36:37;;;;;;;1.02;1.02;;;;;;;;;;1277519;23;20389;-74
2024/03/04 00:37:09;;;;;;;0.47;0.47;;;;;;;;;;1276184;23;20015;-73
2024/03/04 00:37:41;;;;;;;1.65;1.58;;;;;;;;;;1278207;23;20012;-74
2024/03/04 00:38:12;;;;;;;0.55;0.55;;;;;;;;;;1284527;23;20078;-73
2024/03/04 00:38:42;;;;;;;0.55;0.55;;;;;;;;;;1284466;23;20386;-74
2024/03/04 00:39:13;;;;;;;1.60;1.50;;;;;;;;;;1283815;23;20004;-74
2024/03/04 00:39:43;;;;;;;0.35;0.35;;;;;;;;;;1283824;23;20413;-74
2024/03/04 00:40:14;;;;;;;0.88;0.60;;;;;;;;;;1284047;23;20087;-73
2024/03/04 00:40:45;;;;;;;1.02;1.02;;;;;;;;;;1278194;23;20001;-74
2024/03/04 00:41:21;;;;;;;1.92;1.83;;;;;;;;;;1277805;23;20005;-73
2024/03/04 00:41:52;;;;;;;7.57;1.38;;;;;;;;;;1271665;23;20441;-73
2024/03/04 00:42:25;;;;;;;0.30;0.30;;;;;;;;;;1272832;23;20005;-74
2024/03/04 00:42:56;;;;;;;1.88;1.77;;;;;;;;;;1273314;23;20032;-73
2024/03/04 00:43:27;;;;;;;3.13;2.40;;;;;;;;;;1278006;23;20421;-74
2024/03/04 00:43:58;;;;;;;0.50;0.50;;;;;;;;;;1284100;23;20012;-74
2024/03/04 00:44:29;;;;;;;1.67;1.58;;;;;;;;;;1284192;23;20107;-73
2024/03/04 00:44:59;;;;;;;1.50;1.40;;;;;;;;;;1284241;23;20001;-73
2024/03/04 00:45:30;;;;;;;2.17;1.10;;;;;;;;;;1284233;23;20004;-73
2024/03/04 00:46:02;;;;;;;1.08;0.98;;;;;;;;;;1267441;23;20024;-73
2024/03/04 00:46:32;;;;;;;2.80;2.58;;;;;;;;;;1252606;23;20042;-74
2024/03/04 00:47:03;;;;;;;0.32;0.32;;;;;;;;;;1252746;23;20416;-73
2024/03/04 00:47:33;;;;;;;1.25;1.17;;;;;;;;;;1252998;23;20508;-73
2024/03/04 00:48:04;;;;;;;0.60;0.60;;;;;;;;;;1258927;23;20493;-74
2024/03/04 00:48:34;;;;;;;5.20;1.55;;;;;;;;;;1258588;23;20006;-73
2024/03/04 00:49:05;;;;;;;5.00;1.65;;;;;;;;;;1258696;23;20461;-74
2024/03/04 00:49:35;;;;;;;4.40;4.03;;;;;;;;;;1258472;23;20398;-73
2024/03/04 00:50:06;;;;;;;2.55;2.13;;;;;;;;;;1258881;23;20010;-74
2024/03/04 00:50:36;;;;;;;3.10;2.55;;;;;;;;;;1264475;23;20002;-73
2024/03/04 00:51:07;;;;;;;2.22;1.63;;;;;;;;;;1258715;23;20013;-73
2024/03/04 00:51:37;;;;;;;7.22;2.17;;;;;;;;;;1258617;23;20008;-74
2024/03/04 00:52:08;;;;;;;4.40;3.05;;;;;;;;;;1252430;23;20017;-74
2024/03/04 00:52:39;;;;;;;2.80;2.60;;;;;;;;;;1252612;23;20161;-73
2024/03/04 00:53:09;;;;;;;0.40;0.40;;;;;;;;;;1252545;23;20007;-74
2024/03/04 00:53:40;;;;;;;3.15;2.15;;;;;;;;;;1246940;23;20039;-74
2024/03/04 00:54:11;;;;;;;2.38;2.20;;;;;;;;;;1252922;23;20034;-73
2024/03/04 00:54:41;;;;;;;2.42;2.22;;;;;;;;;;1252849;23;20010;-74
2024/03/04 00:55:12;;;;;;;4.40;2.70;;;;;;;;;;1252325;23;20419;-73
2024/03/04 00:55:42;;;;;;;0.30;0.30;;;;;;;;;;1258695;23;20462;-74
2024/03/04 00:56:13;;;;;;;8.68;3.03;;;;;;;;;;1258888;23;20326;-75
2024/03/04 00:56:44;;;;;;;5.10;1.67;;;;;;;;;;1258321;23;20010;-75
2024/03/04 00:57:15;;;;;;;0.93;0.93;;;;;;;;;;1264756;23;20010;-74
2024/03/04 00:57:46;;;;;;;1.05;1.05;;;;;;;;;;1258764;23;20485;-73
2024/03/04 00:58:16;;;;;;;9.60;2.20;;;;;;;;;;1258888;23;20006;-74
2024/03/04 00:58:48;;;;;;;1.55;1.15;;;;;;;;;;1257299;23;20446;-73
2024/03/04 00:59:18;;;;;;;2.25;2.15;;;;;;;;;;1258721;23;20034;-73
2024/03/04 00:59:49;;;;;;;7.00;2.15;;;;;;;;;;1259249;23;20011;-74
2024/03/04 01:00:19;;;;;;;1.55;1.30;;;;;;;;;;1258094;23;20011;-74
2024/03/04 01:00:49;;;;;;;2.08;1.98;;;;;;;;;;1258524;23;20010;-73
2024/03/04 01:01:20;;;;;;;4.53;2.47;;;;;;;;;;1258580;23;20006;-73
2024/03/04 01:01:50;;;;;;;1.00;1.00;;;;;;;;;;1259172;23;20435;-73
2024/03/04 01:02:21;;;;;;;1.40;1.33;;;;;;;;;;1258443;23;20011;-74
2024/03/04 01:02:53;;;;;;;2.20;0.95;;;;;;;;;;1258830;23;20011;-75
2024/03/04 01:03:23;;;;;;;1.15;1.15;;;;;;;;;;1258825;23;20141;-75
2024/03/04 01:03:54;;;;;;;1.98;1.45;;;;;;;;;;1259198;23;20010;-73
2024/03/04 01:04:25;;;;;;;1.35;1.27;;;;;;;;;;1258673;23;20012;-74
2024/03/04 01:04:56;;;;;;;2.58;1.58;;;;;;;;;;1252656;23;20086;-74
2024/03/04 01:05:27;;;;;;;1.13;0.90;;;;;;;;;;1253020;23;20064;-74
2024/03/04 01:05:59;;;;;;;4.75;3.15;;;;;;;;;;1258720;23;20010;-74
2024/03/04 01:06:30;;;;;;;0.90;0.82;;;;;;;;;;1259089;23;19998;-73
2024/03/04 01:07:00;;;;;;;2.50;2.35;;;;;;;;;;1258599;23;20081;-74
2024/03/04 01:07:31;;;;;;;0.90;0.90;;;;;;;;;;1258706;23;20089;-74
2024/03/04 01:08:02;;;;;;;0.60;0.60;;;;;;;;;;1259106;23;20006;-73
2024/03/04 01:08:32;;;;;;;0.63;0.63;;;;;;;;;;1258891;23;20365;-73
2024/03/04 01:09:03;;;;;;;2.08;1.98;;;;;;;;;;1258217;23;20402;-74
2024/03/04 01:09:34;;;;;;;2.03;1.92;;;;;;;;;;1258351;23;20014;-73
2024/03/04 01:10:05;;;;;;;5.75;3.65;;;;;;;;;;1258594;23;20002;-74
2024/03/04 01:10:36;;;;;;;6.22;3.90;;;;;;;;;;1252390;23;20070;-73
2024/03/04 01:11:07;;;;;;;8.27;3.53;;;;;;;;;;1252585;23;20007;-73
2024/03/04 01:11:38;;;;;;;1.00;0.93;;;;;;;;;;1246526;23;20017;-74
2024/03/04 01:12:08;;;;;;;3.05;2.63;;;;;;;;;;1241309;23;20012;-74
2024/03/04 01:12:39;;;;;;;0.85;0.75;;;;;;;;;;1246921;23;20018;-73
2024/03/04 01:13:09;;;;;;;5.07;3.67;;;;;;;;;;1253049;23;20015;-74
2024/03/04 01:13:40;;;;;;;1.17;1.17;;;;;;;;;;1257485;23;20022;-73
2024/03/04 01:14:10;;;;;;;2.88;2.67;;;;;;;;;;1259324;23;20124;-74
2024/03/04 01:14:41;;;;;;;8.00;3.92;;;;;;;;;;1258276;23;20009;-73
2024/03/04 01:15:12;;;;;;;3.95;2.35;;;;;;;;;;1252680;23;20010;-74
2024/03/04 01:15:42;;;;;;;5.90;2.80;;;;;;;;;;1252654;23;20007;-74
2024/03/04 01:16:13;;;;;;;8.80;3.50;;;;;;;;;;1253059;23;20007;-73
2024/03/04 01:16:44;;;;;;;1.75;1.65;;;;;;;;;;1251361;23;20013;-73
2024/03/04 01:17:16;;;;;;;7.85;2.88;;;;;;;;;;1258556;23;20006;-74
2024/03/04 01:17:47;;;;;;;2.10;2.00;;;;;;;;;;1252585;23;20097;-74
2024/03/04 01:18:17;;;;;;;2.72;2.53;;;;;;;;;;1253050;23;20017;-74
2024/03/04 01:18:48;;;;;;;26.77;2.08;;;;;;;;;;1258073;23;20478;-74
2024/03/04 01:19:20;;;;;;;2.28;2.08;;;;;;;;;;1258482;23;20006;-74
2024/03/04 01:19:51;;;;;;;1.40;1.20;;;;;;;;;;1263909;23;20013;-74
2024/03/04 01:20:21;;;;;;;2.88;2.08;;;;;;;;;;1258446;23;20056;-74
2024/03/04 01:20:52;;;;;;;2.75;1.85;;;;;;;;;;1258508;23;20089;-74
2024/03/04 01:21:24;;;;;;;1.80;1.70;;;;;;;;;;1258535;23;20010;-73
2024/03/04 01:21:55;;;;;;;7.57;1.77;;;;;;;;;;1257570;23;20007;-73
2024/03/04 01:22:26;;;;;;;4.13;3.72;;;;;;;;;;1258647;23;20030;-73
2024/03/04 01:22:56;;;;;;;0.82;0.80;;;;;;;;;;1256028;23;20451;-73
2024/03/04 01:23:27;;;;;;;5.47;4.25;;;;;;;;;;1251869;23;20002;-74
2024/03/04 01:23:58;;;;;;;2.25;2.03;;;;;;;;;;1254741;23;20003;-73
2024/03/04 01:24:28;;;;;;;3.20;2.90;;;;;;;;;;1253061;23;20011;-74
2024/03/04 01:25:00;;;;;;;14.50;4.32;;;;;;;;;;1258900;23;20006;-74
2024/03/04 01:25:31;;;;;;;1.55;1.45;;;;;;;;;;1257870;23;20010;-73
2024/03/04 01:26:01;;;;;;;11.18;4.50;;;;;;;;;;1257891;23;20486;-73
2024/03/04 01:26:32;;;;;;;5.85;4.18;;;;;;;;;;1245911;23;20463;-74
2024/03/04 01:27:03;;;;;;;2.30;2.10;;;;;;;;;;1246826;23;20003;-73
2024/03/04 01:27:35;;;;;;;12.90;3.47;;;;;;;;;;1252876;23;20457;-73
2024/03/04 01:28:06;;;;;;;0.70;0.70;;;;;;;;;;1252491;23;20006;-73
2024/03/04 01:28:36;;;;;;;2.22;1.73;;;;;;;;;;1251823;23;20007;-74
2024/03/04 01:29:08;;;;;;;1.60;0.93;;;;;;;;;;1250473;23;20748;-74
2024/03/04 01:29:41;;;;;;;3.60;3.35;;;;;;;;;;1246552;23;20011;-73
2024/03/04 01:30:15;;;;;;;8.25;3.13;;;;;;;;;;1252816;23;20007;-73
2024/03/04 01:30:46;;;;;;;0.50;0.50;;;;;;;;;;1256799;23;20382;-73
2024/03/04 01:31:18;;;;;;;3.30;2.42;;;;;;;;;;1257584;23;20006;-74
2024/03/04 01:31:49;;;;;;;0.47;0.47;;;;;;;;;;1264011;23;20430;-74
2024/03/04 01:32:21;;;;;;;2.15;2.03;;;;;;;;;;1261241;23;20009;-73
2024/03/04 01:32:52;;;;;;;6.05;1.77;;;;;;;;;;1255666;23;20006;-73
2024/03/04 01:33:23;;;;;;;1.65;1.42;;;;;;;;;;1254792;23;20097;-73
2024/03/04 01:33:53;;;;;;;1.65;1.55;;;;;;;;;;1251009;23;20014;-74
2024/03/04 01:34:24;;;;;;;1.60;1.27;;;;;;;;;;1247004;23;20015;-73
2024/03/04 01:34:56;;;;;;;6.50;5.45;;;;;;;;;;1250379;23;20084;-74
2024/03/04 01:35:26;;;;;;;10.15;5.40;;;;;;;;;;1256879;23;20013;-74
2024/03/04 01:35:57;;;;;;;1.27;1.02;;;;;;;;;;1255307;23;20034;-73
2024/03/04 01:36:29;;;;;;;0.60;0.60;;;;;;;;;;1256175;23;20018;-73
2024/03/04 01:37:01;;;;;;;2.65;2.30;;;;;;;;;;1254465;23;20006;-73
2024/03/04 01:37:32;;;;;;;3.83;2.85;;;;;;;;;;1255667;23;20007;-74
2024/03/04 01:38:02;;;;;;;3.25;1.83;;;;;;;;;;1258564;23;20021;-73
2024/03/04 01:38:33;;;;;;;4.43;3.08;;;;;;;;;;1251362;23;20545;-74
2024/03/04 01:39:03;;;;;;;1.45;1.35;;;;;;;;;;1254057;23;20010;-74
2024/03/04 01:39:34;;;;;;;10.93;3.20;;;;;;;;;;1251837;23;20465;-74
2024/03/04 01:40:06;;;;;;;7.18;3.03;;;;;;;;;;1249060;23;20541;-74
2024/03/04 01:40:36;;;;;;;6.72;2.50;;;;;;;;;;1255607;23;20006;-75
2024/03/04 01:41:07;;;;;;;1.70;1.60;;;;;;;;;;1255263;23;20021;-74
2024/03/04 01:41:37;;;;;;;2.97;1.65;;;;;;;;;;1256760;23;20105;-73
2024/03/04 01:42:08;;;;;;;4.93;3.88;;;;;;;;;;1262097;23;20390;-73
2024/03/04 01:42:48;;;;;;;1.65;1.48;;;;;;;;;;1262988;23;20006;-73
2024/03/04 01:43:18;;;;;;;2.15;1.60;;;;;;;;;;1261603;23;20215;-73
2024/03/04 01:43:50;;;;;;;2.30;1.85;;;;;;;;;;1256839;23;20091;-73
2024/03/04 01:44:26;;;;;;;2.20;2.00;;;;;;;;;;1257184;23;20466;-74
2024/03/04 01:44:56;;;;;;;0.82;0.82;;;;;;;;;;1251069;23;20009;-73
2024/03/04 01:45:27;;;;;;;2.40;1.83;;;;;;;;;;1249582;23;20494;-74
2024/03/04 01:45:58;;;;;;;4.35;1.98;;;;;;;;;;1259422;23;20531;-75
2024/03/04 01:46:28;;;;;;;2.28;2.00;;;;;;;;;;1276336;23;20035;-74
2024/03/04 01:47:02;;;;;;;3.10;2.90;;;;;;;;;;1282065;23;20016;-74
2024/03/04 01:47:33;;;;;;;0.35;0.35;;;;;;;;;;1282865;23;20550;-75
2024/03/04 01:48:04;;;;;;;6.68;2.50;;;;;;;;;;1288267;23;20012;-74
2024/03/04 01:48:35;;;;;;;6.03;2.25;;;;;;;;;;1288095;23;20004;-75
2024/03/04 01:49:07;;;;;;;3.25;2.78;;;;;;;;;;1289105;23;20476;-75
2024/03/04 01:49:38;;;;;;;3.05;2.80;;;;;;;;;;1288999;23;20012;-74
2024/03/04 01:50:09;;;;;;;1.15;1.15;;;;;;;;;;1289416;23;20099;-75
2024/03/04 01:50:41;;;;;;;5.80;5.25;;;;;;;;;;1288384;23;20012;-75
2024/03/04 01:51:12;;;;;;;6.13;2.50;;;;;;;;;;1289322;23;20692;-74
2024/03/04 01:51:43;;;;;;;3.20;2.13;;;;;;;;;;1288754;23;20096;-74
2024/03/04 01:52:15;;;;;;;1.70;1.52;;;;;;;;;;1283037;23;20027;-75
2024/03/04 01:52:47;;;;;;;2.10;1.95;;;;;;;;;;1281682;23;20004;-75
2024/03/04 01:53:18;;;;;;;2.03;1.75;;;;;;;;;;1277021;23;20059;-74
2024/03/04 01:53:49;;;;;;;13.40;4.03;;;;;;;;;;1277819;23;20005;-74
2024/03/04 01:54:19;;;;;;;4.03;3.60;;;;;;;;;;1282929;23;20058;-74
2024/03/04 01:54:51;;;;;;;2.95;2.78;;;;;;;;;;1287124;23;20016;-75
2024/03/04 01:55:22;;;;;;;8.80;4.32;;;;;;;;;;1288948;23;20413;-73
2024/03/04 01:55:55;;;;;;;3.08;2.30;;;;;;;;;;1289287;23;20051;-75
2024/03/04 01:56:26;;;;;;;2.00;1.90;;;;;;;;;;1282551;23;20011;-74
2024/03/04 01:56:56;;;;;;;10.38;2.13;;;;;;;;;;1277285;23;20016;-74
2024/03/04 01:57:27;;;;;;;2.20;1.55;;;;;;;;;;1271601;23;20005;-74
2024/03/04 01:57:58;;;;;;;1.73;1.63;;;;;;;;;;1277868;23;20005;-75
2024/03/04 01:58:30;;;;;;;0.75;0.75;;;;;;;;;;1282842;23;20015;-75
2024/03/04 01:59:01;;;;;;;5.15;3.15;;;;;;;;;;1283384;23;20005;-74
2024/03/04 01:59:32;;;;;;;3.58;2.47;;;;;;;;;;1289373;23;20000;-74
2024/03/04 02:00:11;;;;;;;4.07;3.38;;;;;;;;;;1289319;23;20004;-75
2024/03/04 02:00:44;;;;;;;2.70;2.50;;;;;;;;;;1282906;23;20012;-74
2024/03/04 02:01:14;;;;;;;2.97;1.08;;;;;;;;;;1275231;23;20013;-74
2024/03/04 02:01:46;;;;;;;2.50;1.92;;;;;;;;;;1273892;23;20009;-74
2024/03/04 02:02:16;;;;;;;3.58;2.97;;;;;;;;;;1270402;23;20009;-74
2024/03/04 02:02:47;;;;;;;2.53;2.33;;;;;;;;;;1270265;23;20049;-75
2024/03/04 02:03:19;;;;;;;7.72;4.30;;;;;;;;;;1276837;23;20087;-74
2024/03/04 02:03:56;;;;;;;3.13;2.83;;;;;;;;;;1276836;23;20036;-74
2024/03/04 02:04:27;;;;;;;1.17;1.13;;;;;;;;;;1276450;23;20005;-75
2024/03/04 02:04:58;;;;;;;0.70;0.70;;;;;;;;;;1270016;23;20009;-75
2024/03/04 02:05:28;;;;;;;7.90;5.53;;;;;;;;;;1266076;23;20009;-75
2024/03/04 02:05:59;;;;;;;4.43;3.58;;;;;;;;;;1270127;23;20007;-74
2024/03/04 02:06:31;;;;;;;3.38;2.25;;;;;;;;;;1277001;23;20005;-75
2024/03/04 02:07:01;;;;;;;12.80;3.22;;;;;;;;;;1276609;23;20009;-74
2024/03/04 02:07:32;;;;;;;1.50;1.40;;;;;;;;;;1283126;23;20027;-74
2024/03/04 02:08:03;;;;;;;1.30;1.23;;;;;;;;;;1282963;23;20019;-74
2024/03/04 02:08:35;;;;;;;2.58;1.83;;;;;;;;;;1283584;23;20447;-74
2024/03/04 02:09:07;;;;;;;4.47;1.88;;;;;;;;;;1289215;23;20010;-75
2024/03/04 02:09:38;;;;;;;2.47;2.30;;;;;;;;;;1289528;23;20431;-75
2024/03/04 02:10:12;;;;;;;2.38;2.13;;;;;;;;;;1283141;23;20004;-74
2024/03/04 02:10:45;;;;;;;3.70;3.20;;;;;;;;;;1275277;23;20079;-74
2024/03/04 02:11:16;;;;;;;3.92;2.95;;;;;;;;;;1277194;23;20096;-75
2024/03/04 02:11:47;;;;;;;2.72;2.53;;;;;;;;;;1271846;23;20455;-74
2024/03/04 02:12:17;;;;;;;1.58;1.45;;;;;;;;;;1272034;23;20009;-74
2024/03/04 02:12:49;;;;;;;13.25;3.40;;;;;;;;;;1270672;23;20029;-74
2024/03/04 02:13:20;;;;;;;8.55;2.63;;;;;;;;;;1271235;23;20009;-74
2024/03/04 02:13:56;;;;;;;6.50;2.22;;;;;;;;;;1276790;23;20349;-74
2024/03/04 02:14:27;;;;;;;1.23;0.77;;;;;;;;;;1278398;23;20016;-74
2024/03/04 02:15:02;;;;;;;10.65;3.22;;;;;;;;;;1274704;23;20005;-74
2024/03/04 02:15:36;;;;;;;13.40;3.28;;;;;;;;;;1274966;23;20009;-74
2024/03/04 02:16:08;;;;;;;1.77;1.67;;;;;;;;;;1278152;23;20008;-75
2024/03/04 02:16:38;;;;;;;3.97;2.38;;;;;;;;;;1284536;23;20008;-74
2024/03/04 02:17:09;;;;;;;3.95;3.38;;;;;;;;;;1287432;23;20356;-74
2024/03/04 02:17:40;;;;;;;17.75;4.38;;;;;;;;;;1279455;23;20008;-74
2024/03/04 02:18:12;;;;;;;5.00;3.90;;;;;;;;;;1281882;23;20392;-75
2024/03/04 02:18:42;;;;;;;2.20;2.00;;;;;;;;;;1280154;23;20090;-75
2024/03/04 02:19:14;;;;;;;6.50;2.50;;;;;;;;;;1280294;23;20407;-74
2024/03/04 02:19:46;;;;;;;4.72;2.85;;;;;;;;;;1280214;23;20103;-74
2024/03/04 02:20:21;;;;;;;3.72;2.00;;;;;;;;;;1282385;23;20420;-74
2024/03/04 02:20:57;;;;;;;1.25;1.17;;;;;;;;;;1287159;23;20015;-75
2024/03/04 02:21:30;;;;;;;4.00;0.85;;;;;;;;;;1287590;23;20026;-74
2024/03/04 02:22:05;;;;;;;1.27;1.17;;;;;;;;;;1279846;23;20036;-75
2024/03/04 02:22:36;;;;;;;1.38;1.30;;;;;;;;;;1272511;23;20401;-74
2024/03/04 02:23:09;;;;;;;1.83;1.73;;;;;;;;;;1276157;23;20005;-75
2024/03/04 02:23:39;;;;;;;2.00;1.02;;;;;;;;;;1277876;23;20016;-75
2024/03/04 02:24:10;;;;;;;5.20;3.38;;;;;;;;;;1276789;23;20798;-74
2024/03/04 02:24:41;;;;;;;4.25;3.33;;;;;;;;;;1282306;23;20083;-74
2024/03/04 02:25:13;;;;;;;2.15;1.45;;;;;;;;;;1283146;23;20016;-74
2024/03/04 02:25:54;;;;;;;4.78;2.95;;;;;;;;;;1276869;23;20488;-74
2024/03/04 02:26:26;;;;;;;4.55;3.28;;;;;;;;;;1275279;23;20024;-75
2024/03/04 02:26:57;;;;;;;5.70;4.28;;;;;;;;;;1269541;23;20010;-74
2024/03/04 02:27:27;;;;;;;3.97;3.58;;;;;;;;;;1265418;23;20299;-75
2024/03/04 02:27:58;;;;;;;7.13;4.30;;;;;;;;;;1269832;23;20511;-74
2024/03/04 02:28:28;;;;;;;5.30;3.50;;;;;;;;;;1270865;23;20474;-74
2024/03/04 02:29:00;;;;;;;7.65;3.90;;;;;;;;;;1276048;23;20009;-74
2024/03/04 02:29:30;;;;;;;4.68;2.53;;;;;;;;;;1269726;23;20083;-74
2024/03/04 02:30:04;;;;;;;5.57;2.90;;;;;;;;;;1269674;23;20020;-74
2024/03/04 02:30:34;;;;;;;2.05;1.92;;;;;;;;;;1275851;23;20916;-75
2024/03/04 02:31:06;;;;;;;1.20;1.17;;;;;;;;;;1282024;23;20514;-75
2024/03/04 02:31:37;;;;;;;5.57;4.50;;;;;;;;;;1286925;23;20004;-76
2024/03/04 02:32:09;;;;;;;3.47;3.17;;;;;;;;;;1288777;23;20456;-74
2024/03/04 02:32:42;;;;;;;1.05;1.02;;;;;;;;;;1289643;23;20468;-75
2024/03/04 02:33:12;;;;;;;8.77;2.90;;;;;;;;;;1288086;23;20004;-75
2024/03/04 02:33:45;;;;;;;10.80;3.40;;;;;;;;;;1286417;23;20004;-75
2024/03/04 02:34:16;;;;;;;5.25;2.95;;;;;;;;;;1281662;23;20388;-75
2024/03/04 02:34:47;;;;;;;5.03;3.00;;;;;;;;;;1288453;23;20062;-75
2024/03/04 02:35:18;;;;;;;12.98;3.13;;;;;;;;;;1289179;23;20054;-75
2024/03/04 02:35:49;;;;;;;3.10;1.88;;;;;;;;;;1289575;23;20015;-75
2024/03/04 02:36:20;;;;;;;7.72;2.60;;;;;;;;;;1281371;23;20099;-75
2024/03/04 02:36:51;;;;;;;1.52;1.42;;;;;;;;;;1276379;23;20005;-75
2024/03/04 02:37:22;;;;;;;7.53;2.55;;;;;;;;;;1276068;23;20004;-74
2024/03/04 02:37:54;;;;;;;2.78;2.47;;;;;;;;;;1281718;23;20507;-75
2024/03/04 02:38:25;;;;;;;2.90;2.65;;;;;;;;;;1282251;23;20015;-74
2024/03/04 02:38:56;;;;;;;1.98;1.85;;;;;;;;;;1281051;23;20004;-75
2024/03/04 02:39:28;;;;;;;7.25;4.13;;;;;;;;;;1288787;23;20010;-75
2024/03/04 02:40:00;;;;;;;6.47;4.32;;;;;;;;;;1282426;23;20014;-75
2024/03/04 02:40:31;;;;;;;2.42;2.22;;;;;;;;;;1270968;23;20097;-74
2024/03/04 02:41:04;;;;;;;4.90;3.97;;;;;;;;;;1270527;23;20515;-74
2024/03/04 02:41:36;;;;;;;3.75;2.85;;;;;;;;;;1270256;23;20460;-74
2024/03/04 02:42:07;;;;;;;25.77;4.13;;;;;;;;;;1264311;23;20436;-74
2024/03/04 02:42:38;;;;;;;16.08;6.45;;;;;;;;;;1265198;23;20006;-74
2024/03/04 02:43:11;;;;;;;4.65;2.45;;;;;;;;;;1264514;23;20006;-74
2024/03/04 02:43:46;;;;;;;5.45;3.15;;;;;;;;;;1262435;23;20506;-75
2024/03/04 02:44:16;;;;;;;3.20;1.52;;;;;;;;;;1264885;23;20005;-75
2024/03/04 02:44:49;;;;;;;7.90;2.15;;;;;;;;;;1265412;23;20026;-75
2024/03/04 02:45:23;;;;;;;3.78;1.85;;;;;;;;;;1264585;23;20044;-75
2024/03/04 02:45:54;;;;;;;1.15;1.02;;;;;;;;;;1253647;23;20016;-75
2024/03/04 02:46:25;;;;;;;2.50;2.35;;;;;;;;;;1245947;23;20352;-75
2024/03/04 02:46:56;;;;;;;3.92;1.58;;;;;;;;;;1251061;23;20007;-75
2024/03/04 02:47:26;;;;;;;3.67;3.42;;;;;;;;;;1251892;23;20072;-74
2024/03/04 02:47:57;;;;;;;0.95;0.95;;;;;;;;;;1256548;23;20478;-75
2024/03/04 02:48:28;;;;;;;1.75;1.15;;;;;;;;;;1256532;23;20028;-74
2024/03/04 02:48:59;;;;;;;8.85;4.38;;;;;;;;;;1250113;23;20339;-75
2024/03/04 02:49:31;;;;;;;1.70;1.60;;;;;;;;;;1243439;23;20020;-74
2024/03/04 02:50:03;;;;;;;2.35;2.17;;;;;;;;;;1237874;23;20021;-74
2024/03/04 02:50:33;;;;;;;2.47;2.17;;;;;;;;;;1244648;23;20450;-75
2024/03/04 02:51:05;;;;;;;2.08;0.68;;;;;;;;;;1245812;23;20007;-75
2024/03/04 02:51:36;;;;;;;4.72;4.00;;;;;;;;;;1243525;23;20023;-75
2024/03/04 02:52:08;;;;;;;6.65;1.75;;;;;;;;;;1242739;23;20014;-75
2024/03/04 02:52:44;;;;;;;3.58;2.20;;;;;;;;;;1245004;23;20007;-75
2024/03/04 02:53:15;;;;;;;6.10;1.90;;;;;;;;;;1244486;23;20794;-74
2024/03/04 02:53:46;;;;;;;14.18;4.28;;;;;;;;;;1243883;23;20011;-75
2024/03/04 02:54:19;;;;;;;5.75;3.20;;;;;;;;;;1238687;23;20008;-74
2024/03/04 02:54:49;;;;;;;2.33;1.95;;;;;;;;;;1238507;23;20008;-75
2024/03/04 02:55:20;;;;;;;2.47;1.35;;;;;;;;;;1245259;23;20664;-74
2024/03/04 02:55:52;;;;;;;7.93;2.97;;;;;;;;;;1245674;23;20010;-74
2024/03/04 02:56:24;;;;;;;2.47;2.28;;;;;;;;;;1243461;23;20090;-75
2024/03/04 02:56:56;;;;;;;6.90;3.20;;;;;;;;;;1238603;23;20078;-75
2024/03/04 02:57:35;;;;;;;3.25;1.55;;;;;;;;;;1240258;23;20015;-74
2024/03/04 02:58:15;;;;;;;2.70;2.50;;;;;;;;;;1239940;23;20238;-74
2024/03/04 02:58:47;;;;;;;0.57;0.57;;;;;;;;;;1239584;23;20018;-75
2024/03/04 02:59:19;;;;;;;18.52;7.30;;;;;;;;;;1254985;23;20016;-74
2024/03/04 02:59:49;;;;;;;9.68;3.97;;;;;;;;;;1276067;23;20191;-75
2024/03/04 03:00:20;;;;;;;5.65;3.45;;;;;;;;;;1276106;23;20005;-75
2024/03/04 03:00:52;;;;;;;3.95;1.58;;;;;;;;;;1272466;23;20483;-75
2024/03/04 03:01:26;;;;;;;10.38;6.05;;;;;;;;;;1249985;23;20011;-75
2024/03/04 03:01:59;;;;;;;2.67;2.42;;;;;;;;;;1244038;23;20007;-75
2024/03/04 03:02:30;;;;;;;9.15;2.55;;;;;;;;;;1243044;23;20007;-74
2024/03/04 03:03:01;;;;;;;4.47;4.10;;;;;;;;;;1244120;23;20018;-75
2024/03/04 03:03:32;;;;;;;5.65;3.67;;;;;;;;;;1244483;23;20041;-75
2024/03/04 03:04:03;;;;;;;4.25;3.38;;;;;;;;;;1243604;23;20085;-75
2024/03/04 03:04:34;;;;;;;5.38;2.35;;;;;;;;;;1244645;23;20434;-76
2024/03/04 03:05:05;;;;;;;6.55;3.78;;;;;;;;;;1251155;23;20006;-74
2024/03/04 03:05:40;;;;;;;2.22;1.95;;;;;;;;;;1249874;23;20102;-75
2024/03/04 03:06:10;;;;;;;8.85;3.22;;;;;;;;;;1244007;23;20317;-74
2024/03/04 03:06:45;;;;;;;16.98;7.22;;;;;;;;;;1244582;23;20255;-75
2024/03/04 03:07:19;;;;;;;5.18;4.70;;;;;;;;;;1239926;23;20046;-75
2024/03/04 03:07:51;;;;;;;21.90;4.60;;;;;;;;;;1233096;23;20028;-75